createdAt,value
2023-09-19T00:02:16.258Z,16.00
2023-09-19T00:07:18.896Z,16.00
2023-09-19T00:12:21.193Z,16.00
2023-09-19T00:17:23.416Z,16.00
2023-09-19T00:22:27.815Z,16.00
2023-09-19T00:27:29.941Z,16.00
2023-09-19T00:32:32.085Z,16.10
2023-09-19T00:37:34.612Z,16.10
2023-09-19T00:42:38.954Z,16.10
2023-09-19T00:47:43.706Z,16.10
2023-09-19T00:52:50.806Z,16.00
2023-09-19T00:57:54.091Z,16.00
2023-09-19T01:02:57.221Z,16.00
2023-09-19T01:08:00.098Z,16.00
2023-09-19T01:13:30.403Z,16.00
2023-09-19T01:18:44.803Z,16.00
2023-09-19T01:24:31.599Z,15.90
2023-09-19T01:29:44.387Z,15.90
2023-09-19T01:35:05.336Z,15.80
2023-09-19T01:40:20.017Z,15.70
2023-09-19T01:46:01.124Z,15.60
2023-09-19T01:51:07.475Z,15.50
2023-09-19T01:56:17.632Z,15.40
2023-09-19T02:01:25.439Z,15.30
2023-09-19T02:06:28.207Z,15.30
2023-09-19T02:11:30.597Z,15.10
2023-09-19T02:16:32.815Z,15.00
2023-09-19T02:21:35.013Z,14.90
2023-09-19T02:26:38.073Z,14.80
2023-09-19T02:31:42.543Z,14.70
2023-09-19T02:36:45.567Z,14.60
2023-09-19T02:41:47.949Z,14.40
2023-09-19T02:46:50.193Z,14.30
2023-09-19T02:51:53.016Z,14.20
2023-09-19T02:56:55.200Z,14.20
2023-09-19T03:01:57.426Z,14.10
2023-09-19T03:07:01.801Z,14.10
2023-09-19T03:12:05.562Z,14.00
2023-09-19T03:17:10.642Z,14.00
2023-09-19T03:22:13.681Z,14.00
2023-09-19T03:27:17.271Z,14.00
2023-09-19T03:32:20.243Z,14.00
2023-09-19T03:37:22.852Z,13.90
2023-09-19T03:42:27.835Z,13.90
2023-09-19T03:47:30.879Z,13.90
2023-09-19T03:52:35.483Z,13.90
2023-09-19T03:57:38.018Z,13.90
2023-09-19T04:02:41.284Z,13.90
2023-09-19T04:07:44.106Z,13.90
2023-09-19T04:12:54.102Z,13.90
2023-09-19T04:17:56.329Z,13.90
2023-09-19T04:22:58.779Z,13.90
2023-09-19T04:28:01.010Z,13.90
2023-09-19T04:33:05.120Z,13.80
2023-09-19T04:38:09.421Z,13.80
2023-09-19T04:43:11.729Z,13.70
2023-09-19T04:48:15.831Z,13.60
2023-09-19T04:53:21.687Z,13.60
2023-09-19T04:58:24.157Z,13.60
2023-09-19T05:03:26.449Z,13.60
2023-09-19T05:08:29.218Z,13.60
2023-09-19T05:13:31.892Z,13.70
2023-09-19T05:18:34.509Z,13.70
2023-09-19T05:23:38.750Z,13.70
2023-09-19T05:28:41.180Z,13.80
2023-09-19T05:33:43.863Z,13.80
2023-09-19T05:38:45.938Z,13.80
2023-09-19T05:43:51.851Z,13.80
2023-09-19T05:48:53.991Z,13.90
2023-09-19T05:53:56.274Z,13.90
2023-09-19T05:58:58.402Z,14.00
2023-09-19T06:04:01.704Z,14.10
2023-09-19T06:09:06.663Z,14.10
2023-09-19T06:14:08.988Z,14.20
2023-09-19T06:19:11.326Z,14.30
2023-09-19T06:24:13.432Z,14.40
2023-09-19T06:29:15.848Z,14.40
2023-09-19T06:34:19.081Z,14.30
2023-09-19T06:39:23.903Z,14.20
2023-09-19T06:44:26.395Z,14.10
2023-09-19T06:49:30.501Z,14.10
2023-09-19T06:54:32.716Z,14.10
2023-09-19T06:59:34.849Z,13.90
2023-09-19T07:04:37.249Z,14.00
2023-09-19T07:09:39.432Z,14.30
2023-09-19T07:14:41.588Z,14.60
2023-09-19T07:19:43.786Z,14.80
2023-09-19T07:24:45.960Z,14.90
2023-09-19T07:29:50.165Z,15.00
2023-09-19T07:34:54.501Z,15.20
2023-09-19T07:39:57.202Z,15.40
2023-09-19T07:45:01.225Z,15.40
2023-09-19T07:50:04.205Z,15.50
2023-09-19T07:55:10.622Z,15.70
2023-09-19T08:00:16.034Z,15.90
2023-09-19T08:05:18.576Z,16.00
2023-09-19T08:10:22.700Z,16.10
2023-09-19T08:15:25.115Z,16.20
2023-09-19T08:20:27.348Z,16.20
2023-09-19T08:25:30.513Z,16.30
2023-09-19T08:30:32.770Z,16.20
2023-09-19T08:35:35.024Z,16.40
2023-09-19T08:40:41.475Z,16.60
2023-09-19T08:45:44.554Z,16.70
2023-09-19T08:51:05.329Z,16.70
2023-09-19T08:56:11.588Z,16.80
2023-09-19T09:01:17.025Z,16.70
2023-09-19T09:06:21.501Z,16.80
2023-09-19T09:11:27.070Z,17.10
2023-09-19T09:16:31.564Z,17.20
2023-09-19T09:21:40.411Z,17.20
2023-09-19T09:26:48.303Z,17.00
2023-09-19T09:31:53.280Z,17.00
2023-09-19T09:36:55.639Z,16.90
2023-09-19T09:42:00.725Z,17.10
2023-09-19T09:47:21.563Z,17.40
2023-09-19T09:52:25.932Z,17.20
2023-09-19T09:57:28.364Z,17.10
2023-09-19T10:02:38.468Z,17.00
2023-09-19T10:07:50.850Z,17.20
2023-09-19T10:13:04.164Z,17.40
2023-09-19T10:18:12.171Z,17.60
2023-09-19T10:23:23.750Z,18.00
2023-09-19T10:28:30.312Z,18.20
2023-09-19T10:33:38.933Z,18.60
2023-09-19T10:38:47.501Z,18.90
2023-09-19T10:43:55.745Z,18.60
2023-09-19T10:49:03.092Z,18.30
2023-09-19T10:54:14.773Z,18.60
2023-09-19T10:59:22.545Z,19.80
2023-09-19T11:04:27.957Z,19.90
2023-09-19T11:09:49.563Z,20.50
2023-09-19T11:14:54.165Z,20.40
2023-09-19T11:20:15.079Z,20.00
2023-09-19T11:25:48.808Z,20.30
2023-09-19T11:30:55.319Z,20.10
2023-09-19T11:36:06.621Z,20.80
2023-09-19T11:41:27.624Z,19.70
2023-09-19T11:46:30.695Z,20.70
2023-09-19T11:51:44.272Z,21.50
2023-09-19T11:56:50.705Z,21.60
2023-09-19T12:02:01.097Z,21.40
2023-09-19T12:07:04.040Z,22.10
2023-09-19T12:12:06.481Z,22.30
2023-09-19T12:17:08.974Z,22.60
2023-09-19T12:22:11.270Z,21.80
2023-09-19T12:27:14.107Z,21.40
2023-09-19T12:32:18.674Z,22.00
2023-09-19T12:37:25.338Z,22.50
2023-09-19T12:42:36.781Z,21.90
2023-09-19T12:47:38.977Z,22.20
2023-09-19T12:52:43.827Z,22.40
2023-09-19T12:58:16.732Z,21.60
2023-09-19T13:03:33.928Z,21.30
2023-09-19T13:08:39.804Z,21.10
2023-09-19T13:13:50.960Z,21.00
2023-09-19T13:18:58.302Z,20.60
2023-09-19T13:24:31.080Z,20.20
2023-09-19T13:29:36.434Z,20.20
2023-09-19T13:34:42.451Z,20.00
2023-09-19T13:39:48.868Z,20.10
2023-09-19T13:44:51.681Z,20.30
2023-09-19T13:49:54.306Z,20.30
2023-09-19T13:55:00.700Z,20.30
2023-09-19T14:00:03.146Z,20.10
2023-09-19T14:05:16.394Z,19.80
2023-09-19T14:10:18.676Z,19.70
2023-09-19T14:15:20.944Z,19.40
2023-09-19T14:20:24.585Z,19.20
2023-09-19T14:25:26.793Z,19.20
2023-09-19T14:30:29.377Z,19.30
2023-09-19T14:35:31.627Z,19.30
2023-09-19T14:40:34.130Z,19.30
2023-09-19T14:45:37.747Z,19.20
2023-09-19T14:50:40.069Z,19.10
2023-09-19T14:55:45.775Z,19.00
2023-09-19T15:06:15.821Z,18.90
2023-09-19T15:11:19.150Z,18.90
2023-09-19T15:16:21.449Z,18.90
2023-09-19T15:21:24.836Z,19.20
2023-09-19T15:26:27.232Z,19.40
2023-09-19T15:31:29.469Z,19.30
2023-09-19T15:36:31.795Z,19.10
2023-09-19T15:41:42.268Z,19.10
2023-09-19T15:46:45.909Z,19.10
2023-09-19T15:51:48.224Z,19.20
2023-09-19T15:56:52.737Z,19.20
2023-09-19T16:01:54.972Z,19.10
2023-09-19T16:06:58.232Z,19.00
2023-09-19T16:12:00.336Z,19.00
2023-09-19T16:17:03.799Z,18.90
2023-09-19T16:22:06.952Z,18.80
2023-09-19T16:27:09.086Z,18.80
2023-09-19T16:32:11.209Z,18.80
2023-09-19T16:37:15.664Z,18.80
2023-09-19T16:42:21.292Z,18.70
2023-09-19T16:47:25.598Z,18.70
2023-09-19T16:52:27.690Z,18.70
2023-09-19T16:57:29.921Z,18.70
2023-09-19T17:02:32.665Z,18.70
2023-09-19T17:07:34.845Z,18.70
2023-09-19T17:12:37.160Z,18.60
2023-09-19T17:17:40.033Z,18.60
2023-09-19T17:22:42.136Z,18.60
2023-09-19T17:27:44.480Z,18.60
2023-09-19T17:32:47.535Z,18.60
2023-09-19T17:37:50.014Z,18.60
2023-09-19T17:42:54.986Z,18.60
2023-09-19T17:47:57.360Z,18.60
2023-09-19T17:53:00.805Z,18.60
2023-09-19T17:58:04.431Z,18.60
2023-09-19T18:03:06.972Z,18.60
2023-09-19T18:08:10.078Z,18.60
2023-09-19T18:13:13.214Z,18.60
2023-09-19T18:18:16.457Z,18.50
2023-09-19T18:23:20.140Z,18.60
2023-09-19T18:28:22.392Z,18.50
2023-09-19T18:33:28.696Z,18.50
2023-09-19T18:38:30.883Z,18.50
2023-09-19T18:43:33.166Z,18.50
2023-09-19T18:48:37.499Z,18.40
2023-09-19T18:53:41.773Z,18.40
2023-09-19T18:58:46.145Z,18.40
2023-09-19T19:03:50.047Z,18.40
2023-09-19T19:08:53.535Z,18.30
2023-09-19T19:13:55.898Z,18.30
2023-09-19T19:18:58.203Z,18.30
2023-09-19T19:24:00.590Z,18.30
2023-09-19T19:29:02.957Z,18.30
2023-09-19T19:34:08.534Z,18.30
2023-09-19T19:39:16.485Z,18.30
2023-09-19T19:44:19.222Z,18.30
2023-09-19T19:49:21.903Z,18.20
2023-09-19T19:54:24.064Z,18.20
2023-09-19T19:59:26.423Z,18.10
2023-09-19T20:04:30.000Z,18.10
2023-09-19T20:09:32.151Z,18.00
2023-09-19T20:14:34.765Z,17.90
2023-09-19T20:19:37.514Z,17.70
2023-09-19T20:24:39.751Z,17.40
2023-09-19T20:29:43.297Z,17.20
2023-09-19T20:34:45.585Z,17.00
2023-09-19T20:39:48.004Z,16.90
2023-09-19T20:44:51.205Z,16.80
2023-09-19T20:49:53.428Z,16.80
2023-09-19T20:54:55.599Z,16.80
2023-09-19T20:59:57.916Z,16.80
2023-09-19T21:05:01.769Z,16.60
2023-09-19T21:10:06.603Z,16.50
2023-09-19T21:15:09.217Z,16.40
2023-09-19T21:20:17.721Z,16.30
2023-09-19T21:25:20.030Z,16.30
2023-09-19T21:30:22.217Z,16.30
2023-09-19T21:35:24.645Z,16.30
2023-09-19T21:40:26.774Z,16.30
2023-09-19T21:45:28.859Z,16.40
2023-09-19T21:50:32.135Z,16.50
2023-09-19T21:55:34.291Z,16.50
2023-09-19T22:00:39.611Z,16.50
2023-09-19T22:05:42.523Z,16.60
2023-09-19T22:10:49.600Z,16.60
2023-09-19T22:15:56.774Z,16.70
2023-09-19T22:21:08.234Z,16.80
2023-09-19T22:26:19.441Z,16.60
2023-09-19T22:31:23.512Z,16.60
2023-09-19T22:36:41.027Z,16.70
2023-09-19T22:41:43.262Z,16.70
2023-09-19T22:46:47.113Z,16.80
2023-09-19T22:51:52.600Z,16.90
2023-09-19T22:56:56.018Z,17.00
2023-09-19T23:01:59.677Z,17.00
2023-09-19T23:07:06.703Z,17.10
2023-09-19T23:12:12.851Z,17.10
2023-09-19T23:17:22.879Z,17.20
2023-09-19T23:22:26.517Z,17.10
2023-09-19T23:27:36.952Z,17.20
2023-09-19T23:32:39.591Z,17.20
2023-09-19T23:37:42.053Z,17.20
2023-09-19T23:42:44.153Z,17.20
2023-09-19T23:47:47.279Z,17.30
2023-09-19T23:52:52.506Z,17.30
2023-09-19T23:57:54.650Z,17.30
